Time;durP1;ratioP1;P1;durP2;ratioP2;P2;SDS_P1;SDS_P2;PMS_P1;PMS_P2;Temp;Humidity;BMP_temperature;BMP_pressure;BME280_temperature;BME280_humidity;BME280_pressure;Samples;Min_cycle;Max_cycle;Signal;HPM_P1;HPM_P2
2023/04/21 00:01:54;;;;;;;4.22;3.13;;;;;;;;;;5050847;28;20472;-66
2023/04/21 00:04:19;;;;;;;4.30;3.38;;;;;;;;;;5045863;28;20094;-64
2023/04/21 00:06:45;;;;;;;5.03;3.60;;;;;;;;;;5048450;28;20421;-62
2023/04/21 00:09:10;;;;;;;4.03;3.10;;;;;;;;;;5055756;28;20274;-67
2023/04/21 00:11:35;;;;;;;4.28;2.95;;;;;;;;;;5050825;28;20118;-67
2023/04/21 00:14:01;;;;;;;4.07;3.15;;;;;;;;;;5060140;28;20257;-64
2023/04/21 00:16:26;;;;;;;4.35;3.40;;;;;;;;;;5041446;28;20484;-66
2023/04/21 00:18:51;;;;;;;4.22;3.13;;;;;;;;;;5027982;28;20040;-67
2023/04/21 00:21:17;;;;;;;3.50;2.95;;;;;;;;;;5051360;28;20120;-67
2023/04/21 00:23:42;;;;;;;4.40;2.85;;;;;;;;;;5024687;28;20048;-70
2023/04/21 00:26:07;;;;;;;4.38;3.00;;;;;;;;;;5031463;28;20104;-66
2023/04/21 00:28:33;;;;;;;3.85;2.92;;;;;;;;;;5054514;28;20036;-67
2023/04/21 00:30:58;;;;;;;3.17;2.88;;;;;;;;;;5058365;28;20032;-70
2023/04/21 00:33:23;;;;;;;3.97;3.03;;;;;;;;;;5054765;28;20511;-66
2023/04/21 00:35:49;;;;;;;4.22;3.00;;;;;;;;;;5031317;28;20033;-66
2023/04/21 00:38:14;;;;;;;4.15;3.00;;;;;;;;;;5065828;28;20033;-68
2023/04/21 00:40:39;;;;;;;3.20;2.58;;;;;;;;;;5047358;28;20115;-68
2023/04/21 00:43:05;;;;;;;2.97;2.67;;;;;;;;;;5039523;28;20851;-65
2023/04/21 00:45:30;;;;;;;4.90;3.17;;;;;;;;;;5056761;28;20061;-63
2023/04/21 00:47:56;;;;;;;3.97;3.10;;;;;;;;;;5034908;28;20041;-65
2023/04/21 00:50:21;;;;;;;3.30;2.72;;;;;;;;;;5044890;28;20287;-66
2023/04/21 00:52:47;;;;;;;3.50;2.90;;;;;;;;;;5065959;28;20037;-64
2023/04/21 00:55:13;;;;;;;4.05;3.40;;;;;;;;;;5048766;28;20774;-65
2023/04/21 00:57:38;;;;;;;3.55;2.67;;;;;;;;;;5026438;28;20025;-66
2023/04/21 01:00:05;;;;;;;3.20;2.63;;;;;;;;;;5031777;28;20048;-67
2023/04/21 01:02:30;;;;;;;4.22;3.10;;;;;;;;;;5025193;28;20049;-66
2023/04/21 01:04:56;;;;;;;3.67;3.00;;;;;;;;;;5047021;28;20108;-64
2023/04/21 01:07:23;;;;;;;3.55;3.10;;;;;;;;;;5047386;28;20040;-64
2023/04/21 01:09:48;;;;;;;3.25;2.65;;;;;;;;;;5030237;28;20028;-66
2023/04/21 01:12:13;;;;;;;3.50;2.80;;;;;;;;;;5055309;28;20134;-63
2023/04/21 01:14:39;;;;;;;3.75;3.00;;;;;;;;;;5001697;28;20287;-67
2023/04/21 01:17:04;;;;;;;3.90;2.85;;;;;;;;;;5037125;28;20108;-69
2023/04/21 01:19:31;;;;;;;4.15;3.15;;;;;;;;;;5053293;28;20359;-65
2023/04/21 01:21:59;;;;;;;4.13;2.95;;;;;;;;;;5030330;28;20055;-68
2023/04/21 01:24:34;;;;;;;4.88;2.85;;;;;;;;;;5042220;28;20032;-62
2023/04/21 01:27:00;;;;;;;3.78;2.70;;;;;;;;;;5038942;28;20130;-64
2023/04/21 01:29:25;;;;;;;3.83;2.92;;;;;;;;;;5046878;28;20123;-68
2023/04/21 01:31:51;;;;;;;4.00;3.30;;;;;;;;;;5039407;28;20072;-69
2023/04/21 01:34:16;;;;;;;4.97;3.42;;;;;;;;;;5063434;28;20059;-66
2023/04/21 01:36:41;;;;;;;3.63;2.83;;;;;;;;;;5065208;28;20072;-68
2023/04/21 01:39:06;;;;;;;3.73;3.20;;;;;;;;;;5031958;28;20285;-68
2023/04/21 01:41:31;;;;;;;3.55;2.88;;;;;;;;;;5042426;28;20287;-64
2023/04/21 01:43:57;;;;;;;3.85;2.90;;;;;;;;;;5027462;28;20558;-65
2023/04/21 01:46:22;;;;;;;4.25;2.92;;;;;;;;;;5031827;28;20089;-67
2023/04/21 01:48:47;;;;;;;3.97;2.80;;;;;;;;;;5042193;28;20090;-68
2023/04/21 01:51:13;;;;;;;3.25;2.70;;;;;;;;;;5057842;28;20293;-64
2023/04/21 01:53:38;;;;;;;4.05;2.92;;;;;;;;;;5018571;28;20535;-68
2023/04/21 01:56:03;;;;;;;4.18;3.20;;;;;;;;;;5027763;28;20048;-69
2023/04/21 01:58:29;;;;;;;3.58;2.90;;;;;;;;;;5061448;28;20056;-67
2023/04/21 02:00:54;;;;;;;3.60;2.90;;;;;;;;;;5046400;28;20037;-66
2023/04/21 02:03:19;;;;;;;4.90;2.90;;;;;;;;;;5029430;28;20527;-67
2023/04/21 02:05:45;;;;;;;3.65;3.00;;;;;;;;;;5015028;28;20276;-66
2023/04/21 02:08:10;;;;;;;3.78;3.00;;;;;;;;;;5054160;28;20029;-66
2023/04/21 02:10:35;;;;;;;3.80;3.00;;;;;;;;;;5058251;28;20033;-67
2023/04/21 02:13:01;;;;;;;4.18;2.83;;;;;;;;;;5040765;28;20477;-63
2023/04/21 02:15:26;;;;;;;4.20;3.00;;;;;;;;;;5033376;28;20406;-64
2023/04/21 02:17:51;;;;;;;3.33;2.70;;;;;;;;;;5038329;28;20369;-64
2023/04/21 02:20:16;;;;;;;4.28;2.85;;;;;;;;;;5043432;28;20465;-67
2023/04/21 02:22:42;;;;;;;3.90;3.10;;;;;;;;;;5038018;28;20131;-65
2023/04/21 02:25:07;;;;;;;3.33;2.95;;;;;;;;;;5046191;28;20152;-66
2023/04/21 02:27:32;;;;;;;4.00;2.92;;;;;;;;;;5050669;28;20063;-68
2023/04/21 02:29:58;;;;;;;2.92;2.63;;;;;;;;;;5021200;28;20646;-66
2023/04/21 02:32:23;;;;;;;4.22;2.88;;;;;;;;;;5059089;28;20032;-65
2023/04/21 02:34:48;;;;;;;3.58;2.72;;;;;;;;;;5031846;28;20064;-65
2023/04/21 02:37:14;;;;;;;3.45;2.70;;;;;;;;;;5059960;28;20127;-65
2023/04/21 02:39:39;;;;;;;3.85;2.88;;;;;;;;;;5039099;28;20025;-67
2023/04/21 02:42:04;;;;;;;3.53;2.80;;;;;;;;;;5063727;28;20032;-67
2023/04/21 02:44:30;;;;;;;3.33;2.60;;;;;;;;;;5064344;28;20039;-69
2023/04/21 02:46:55;;;;;;;3.42;2.67;;;;;;;;;;5035069;28;20183;-66
2023/04/21 02:49:20;;;;;;;3.40;2.83;;;;;;;;;;5043192;28;20063;-67
2023/04/21 02:51:45;;;;;;;3.50;2.70;;;;;;;;;;5044846;28;20495;-65
2023/04/21 02:54:11;;;;;;;3.25;2.78;;;;;;;;;;5060437;28;20445;-64
2023/04/21 02:56:36;;;;;;;3.40;2.90;;;;;;;;;;5064197;28;20051;-66
2023/04/21 02:59:01;;;;;;;3.47;2.97;;;;;;;;;;5037159;28;20292;-67
2023/04/21 03:01:26;;;;;;;3.47;3.00;;;;;;;;;;5039170;28;20557;-62
2023/04/21 03:03:51;;;;;;;4.07;2.80;;;;;;;;;;5022471;28;20571;-65
2023/04/21 03:06:17;;;;;;;3.53;2.97;;;;;;;;;;5043271;28;20374;-66
2023/04/21 03:08:42;;;;;;;2.90;2.60;;;;;;;;;;5062979;28;20275;-67
2023/04/21 03:11:07;;;;;;;3.80;3.20;;;;;;;;;;5045755;28;21132;-68
2023/04/21 03:13:33;;;;;;;3.77;2.83;;;;;;;;;;5045948;28;20702;-65
2023/04/21 03:15:58;;;;;;;3.35;2.78;;;;;;;;;;5028562;28;20275;-65
2023/04/21 03:18:23;;;;;;;4.75;2.90;;;;;;;;;;5029013;28;20048;-68
2023/04/21 03:20:48;;;;;;;4.03;2.80;;;;;;;;;;5043878;28;20102;-69
2023/04/21 03:23:14;;;;;;;4.43;3.05;;;;;;;;;;5055760;28;20307;-62
2023/04/21 03:25:40;;;;;;;4.28;3.05;;;;;;;;;;5019150;28;20032;-67
2023/04/21 03:28:05;;;;;;;3.63;2.93;;;;;;;;;;5062735;28;20809;-66
2023/04/21 03:30:30;;;;;;;3.50;2.67;;;;;;;;;;5028134;28;20291;-67
2023/04/21 03:32:55;;;;;;;3.30;2.77;;;;;;;;;;5024088;28;20771;-68
2023/04/21 03:35:21;;;;;;;3.47;2.95;;;;;;;;;;5014129;28;20797;-64
2023/04/21 03:37:46;;;;;;;3.85;2.72;;;;;;;;;;5055322;28;20041;-65
2023/04/21 03:40:11;;;;;;;3.65;2.60;;;;;;;;;;5047341;28;20080;-69
2023/04/21 03:42:36;;;;;;;3.47;2.70;;;;;;;;;;5024812;28;20086;-68
2023/04/21 03:45:05;;;;;;;3.08;2.65;;;;;;;;;;5053836;28;21141;-71
2023/04/21 03:47:30;;;;;;;3.22;2.58;;;;;;;;;;5048277;28;20036;-67
2023/04/21 03:49:55;;;;;;;3.58;2.40;;;;;;;;;;5052152;28;20132;-70
2023/04/21 03:52:21;;;;;;;2.85;2.33;;;;;;;;;;5064679;28;20715;-64
2023/04/21 03:54:46;;;;;;;3.03;2.47;;;;;;;;;;5044067;28;20071;-68
2023/04/21 03:57:11;;;;;;;3.53;2.70;;;;;;;;;;5020443;28;20541;-71
2023/04/21 03:59:37;;;;;;;3.35;2.45;;;;;;;;;;5048950;28;20057;-65
2023/04/21 04:02:02;;;;;;;3.08;2.55;;;;;;;;;;5048159;28;20514;-68
2023/04/21 04:04:27;;;;;;;3.10;2.40;;;;;;;;;;5030960;28;20032;-68
2023/04/21 04:06:52;;;;;;;3.25;2.60;;;;;;;;;;5047100;28;20044;-67
2023/04/21 04:09:18;;;;;;;3.13;2.40;;;;;;;;;;5064149;28;20197;-65
2023/04/21 04:11:43;;;;;;;3.20;2.43;;;;;;;;;;5036665;28;20288;-68
2023/04/21 04:14:08;;;;;;;3.53;2.40;;;;;;;;;;5058222;28;20798;-68
2023/04/21 04:16:34;;;;;;;3.30;2.57;;;;;;;;;;5019689;28;20301;-68
2023/04/21 04:18:59;;;;;;;3.85;2.00;;;;;;;;;;5032078;28;20290;-68
2023/04/21 04:21:25;;;;;;;3.10;2.20;;;;;;;;;;5029377;28;20329;-68
2023/04/21 04:23:51;;;;;;;3.47;2.53;;;;;;;;;;5029568;28;20406;-62
2023/04/21 04:26:16;;;;;;;3.42;2.60;;;;;;;;;;5034445;28;20458;-64
2023/04/21 04:28:41;;;;;;;2.90;2.30;;;;;;;;;;5024569;28;20063;-63
2023/04/21 04:31:06;;;;;;;2.83;2.30;;;;;;;;;;5030916;28;20290;-63
2023/04/21 04:33:32;;;;;;;3.87;2.40;;;;;;;;;;5029479;28;20051;-65
2023/04/21 04:35:57;;;;;;;3.20;2.43;;;;;;;;;;5051365;28;20274;-65
2023/04/21 04:38:22;;;;;;;3.27;2.60;;;;;;;;;;5037928;28;20377;-65
2023/04/21 04:40:54;;;;;;;3.72;2.60;;;;;;;;;;5047149;28;20290;-64
2023/04/21 04:43:19;;;;;;;2.67;2.40;;;;;;;;;;5047147;28;20119;-67
2023/04/21 04:45:45;;;;;;;2.42;1.85;;;;;;;;;;5024981;28;20049;-66
2023/04/21 04:48:10;;;;;;;2.80;2.30;;;;;;;;;;5029799;28;20098;-66
2023/04/21 04:50:35;;;;;;;2.50;2.10;;;;;;;;;;5045730;28;20037;-66
2023/04/21 04:53:00;;;;;;;2.87;1.97;;;;;;;;;;5030004;28;20807;-66
2023/04/21 04:55:26;;;;;;;2.63;2.00;;;;;;;;;;5057430;28;20402;-65
2023/04/21 04:57:51;;;;;;;3.20;2.20;;;;;;;;;;5043014;28;20090;-65
2023/04/21 05:00:17;;;;;;;2.60;2.10;;;;;;;;;;5060051;28;20029;-65
2023/04/21 05:02:42;;;;;;;2.65;2.20;;;;;;;;;;5046635;28;20131;-65
2023/04/21 05:05:07;;;;;;;2.88;2.15;;;;;;;;;;5063507;28;20056;-63
2023/04/21 05:07:33;;;;;;;3.63;2.60;;;;;;;;;;5052706;28;20032;-65
2023/04/21 05:09:58;;;;;;;3.10;2.40;;;;;;;;;;5052614;28;20649;-67
2023/04/21 05:12:23;;;;;;;3.10;2.40;;;;;;;;;;5060308;28;20086;-65
2023/04/21 05:14:49;;;;;;;2.73;2.23;;;;;;;;;;5053288;28;20142;-65
2023/04/21 05:17:14;;;;;;;2.58;2.13;;;;;;;;;;5046611;28;20300;-64
2023/04/21 05:19:39;;;;;;;2.90;2.33;;;;;;;;;;5045744;28;20485;-65
2023/04/21 05:22:05;;;;;;;2.63;2.17;;;;;;;;;;5054392;28;20496;-65
2023/04/21 05:24:31;;;;;;;3.47;2.20;;;;;;;;;;5035562;28;20550;-67
2023/04/21 05:26:56;;;;;;;3.10;2.33;;;;;;;;;;5045963;28;20114;-72
2023/04/21 05:29:22;;;;;;;2.67;2.33;;;;;;;;;;5041800;28;20072;-64
2023/04/21 05:31:47;;;;;;;3.60;2.10;;;;;;;;;;5047159;28;20037;-65
2023/04/21 05:34:12;;;;;;;3.10;2.63;;;;;;;;;;5047393;28;20803;-68
2023/04/21 05:36:40;;;;;;;3.47;2.47;;;;;;;;;;5022899;28;20943;-70
2023/04/21 05:39:06;;;;;;;3.13;2.40;;;;;;;;;;5046765;28;20287;-71
2023/04/21 05:41:31;;;;;;;3.35;2.50;;;;;;;;;;5044955;28;20092;-64
2023/04/21 05:43:56;;;;;;;2.47;2.20;;;;;;;;;;5022105;28;20044;-71
2023/04/21 05:46:21;;;;;;;2.73;2.23;;;;;;;;;;5049707;28;20041;-71
2023/04/21 05:48:47;;;;;;;3.80;2.47;;;;;;;;;;5045546;28;20340;-73
2023/04/21 05:51:12;;;;;;;3.53;2.37;;;;;;;;;;5038554;28;21177;-65
2023/04/21 05:53:38;;;;;;;2.92;2.30;;;;;;;;;;5026399;28;20327;-70
2023/04/21 05:56:03;;;;;;;3.38;2.08;;;;;;;;;;5048118;28;20130;-65
2023/04/21 05:58:28;;;;;;;2.97;2.20;;;;;;;;;;5039954;28;20057;-69
2023/04/21 06:00:54;;;;;;;3.00;2.17;;;;;;;;;;5045084;28;20064;-67
2023/04/21 06:03:19;;;;;;;3.22;2.50;;;;;;;;;;5047922;28;20302;-67
2023/04/21 06:05:44;;;;;;;3.67;2.03;;;;;;;;;;5031570;28;20061;-67
2023/04/21 06:08:10;;;;;;;2.97;2.13;;;;;;;;;;5053278;28;20283;-67
2023/04/21 06:10:35;;;;;;;3.38;2.35;;;;;;;;;;5061111;28;20048;-66
2023/04/21 06:13:00;;;;;;;3.27;2.37;;;;;;;;;;5056038;28;20040;-65
2023/04/21 06:15:25;;;;;;;2.90;2.25;;;;;;;;;;5055827;28;20292;-67
2023/04/21 06:17:54;;;;;;;2.93;2.40;;;;;;;;;;5034922;28;20064;-66
2023/04/21 06:20:19;;;;;;;4.40;2.53;;;;;;;;;;5044432;28;20386;-64
2023/04/21 06:22:44;;;;;;;3.75;2.53;;;;;;;;;;5061212;28;20135;-68
2023/04/21 06:25:10;;;;;;;3.43;2.80;;;;;;;;;;5051494;28;20445;-68
2023/04/21 06:27:35;;;;;;;4.00;2.43;;;;;;;;;;5029915;28;20296;-64
2023/04/21 06:30:00;;;;;;;4.13;2.93;;;;;;;;;;5047051;28;20280;-64
2023/04/21 06:32:25;;;;;;;3.27;2.57;;;;;;;;;;5035958;28;20045;-65
2023/04/21 06:34:51;;;;;;;3.90;2.67;;;;;;;;;;5048293;28;20344;-68
2023/04/21 06:37:16;;;;;;;3.53;2.40;;;;;;;;;;5050226;28;20676;-63
2023/04/21 06:39:41;;;;;;;2.90;2.30;;;;;;;;;;5028483;28;20416;-66
2023/04/21 06:42:07;;;;;;;3.30;2.50;;;;;;;;;;5044279;28;20234;-65
2023/04/21 06:44:32;;;;;;;3.00;2.33;;;;;;;;;;5045179;28;20055;-63
2023/04/21 06:46:57;;;;;;;3.40;2.60;;;;;;;;;;5030894;28;20412;-60
2023/04/21 06:49:22;;;;;;;3.57;2.40;;;;;;;;;;5034271;28;20090;-64
2023/04/21 06:51:48;;;;;;;4.57;2.50;;;;;;;;;;5065169;28;20283;-66
2023/04/21 06:54:13;;;;;;;4.10;2.55;;;;;;;;;;5056667;28;20838;-60
2023/04/21 06:56:38;;;;;;;3.33;2.43;;;;;;;;;;5046417;28;20025;-64
2023/04/21 06:59:04;;;;;;;3.90;2.60;;;;;;;;;;5018507;28;20869;-64
2023/04/21 07:01:29;;;;;;;3.67;2.55;;;;;;;;;;5045231;28;20044;-63
2023/04/21 07:03:55;;;;;;;2.80;2.33;;;;;;;;;;5027538;28;20084;-62
2023/04/21 07:06:20;;;;;;;3.55;2.50;;;;;;;;;;5063452;28;20036;-62
2023/04/21 07:08:45;;;;;;;2.73;2.13;;;;;;;;;;5053612;28;20040;-65
2023/04/21 07:11:11;;;;;;;3.22;2.30;;;;;;;;;;5048441;28;20041;-65
2023/04/21 07:13:36;;;;;;;4.27;2.60;;;;;;;;;;5064202;28;20029;-64
2023/04/21 07:16:01;;;;;;;3.30;2.27;;;;;;;;;;5060100;28;20287;-66
2023/04/21 07:18:26;;;;;;;3.90;2.73;;;;;;;;;;5045544;28;20366;-66
2023/04/21 07:20:52;;;;;;;3.80;2.50;;;;;;;;;;5050088;28;20300;-67
2023/04/21 07:23:17;;;;;;;3.77;2.33;;;;;;;;;;5068319;28;20849;-63
2023/04/21 07:25:42;;;;;;;3.67;2.58;;;;;;;;;;5053326;28;20729;-65
2023/04/21 07:28:08;;;;;;;3.53;2.67;;;;;;;;;;5030087;28;20051;-67
2023/04/21 07:30:33;;;;;;;2.77;2.40;;;;;;;;;;5050525;28;20370;-65
2023/04/21 07:32:58;;;;;;;4.82;2.45;;;;;;;;;;5061576;28;20284;-68
2023/04/21 07:35:23;;;;;;;3.17;2.63;;;;;;;;;;5069438;28;20568;-67
2023/04/21 07:37:49;;;;;;;3.75;2.30;;;;;;;;;;5022261;28;20276;-65
2023/04/21 07:40:14;;;;;;;3.40;2.37;;;;;;;;;;5061689;28;20041;-65
2023/04/21 07:42:39;;;;;;;3.13;2.42;;;;;;;;;;5053121;28;20102;-66
2023/04/21 07:45:05;;;;;;;3.47;2.53;;;;;;;;;;5051178;28;20095;-65
2023/04/21 07:47:30;;;;;;;3.85;2.67;;;;;;;;;;5055827;28;20294;-65
2023/04/21 07:49:55;;;;;;;3.47;2.50;;;;;;;;;;5055201;28;20069;-62
2023/04/21 07:52:21;;;;;;;3.53;2.70;;;;;;;;;;5056835;28;20664;-62
2023/04/21 07:54:46;;;;;;;2.83;2.50;;;;;;;;;;5048167;28;20037;-63
2023/04/21 07:57:11;;;;;;;3.97;2.70;;;;;;;;;;5047552;28;20296;-63
2023/04/21 07:59:36;;;;;;;2.87;2.17;;;;;;;;;;5044981;28;20111;-64
2023/04/21 08:02:02;;;;;;;3.00;2.20;;;;;;;;;;5054243;28;20282;-68
2023/04/21 08:04:27;;;;;;;3.50;2.42;;;;;;;;;;5050472;28;20152;-62
2023/04/21 08:06:52;;;;;;;3.00;2.40;;;;;;;;;;5055932;28;20513;-64
2023/04/21 08:09:17;;;;;;;3.07;2.20;;;;;;;;;;5054226;28;20373;-65
2023/04/21 08:11:43;;;;;;;3.73;2.50;;;;;;;;;;5053110;28;20428;-64
2023/04/21 08:14:10;;;;;;;3.00;2.38;;;;;;;;;;5039433;28;20048;-64
2023/04/21 08:16:35;;;;;;;3.80;2.38;;;;;;;;;;5057101;28;20140;-61
2023/04/21 08:19:01;;;;;;;3.35;2.20;;;;;;;;;;5046223;28;20057;-68
2023/04/21 08:21:26;;;;;;;4.20;2.60;;;;;;;;;;5058784;28;20063;-63
2023/04/21 08:23:51;;;;;;;3.80;2.60;;;;;;;;;;5057039;28;20677;-63
2023/04/21 08:26:20;;;;;;;6.10;3.25;;;;;;;;;;5060652;28;20067;-68
2023/04/21 08:28:48;;;;;;;6.03;3.65;;;;;;;;;;5067687;28;20062;-63
2023/04/21 08:31:13;;;;;;;14.73;4.10;;;;;;;;;;5038396;28;20048;-65
2023/04/21 08:33:38;;;;;;;7.73;4.10;;;;;;;;;;5047824;28;20465;-69
2023/04/21 08:36:04;;;;;;;5.40;3.60;;;;;;;;;;5038374;28;20445;-70
2023/04/21 08:38:29;;;;;;;6.68;3.97;;;;;;;;;;5048699;28;20013;-66
2023/04/21 08:40:54;;;;;;;6.15;3.88;;;;;;;;;;5053097;28;20025;-65
2023/04/21 08:43:20;;;;;;;9.88;3.72;;;;;;;;;;5030258;28;20059;-67
2023/04/21 08:45:45;;;;;;;9.97;3.77;;;;;;;;;;5053773;28;20078;-63
2023/04/21 08:48:11;;;;;;;7.90;3.70;;;;;;;;;;5040623;28;20124;-62
2023/04/21 08:50:36;;;;;;;10.35;3.85;;;;;;;;;;5033427;28;20670;-62
2023/04/21 08:53:01;;;;;;;8.35;4.13;;;;;;;;;;5057213;28;20025;-65
2023/04/21 08:55:30;;;;;;;10.70;3.63;;;;;;;;;;5063708;28;20025;-70
2023/04/21 08:57:55;;;;;;;6.68;3.22;;;;;;;;;;5050404;28;20256;-61
2023/04/21 09:00:20;;;;;;;5.00;3.22;;;;;;;;;;5046131;28;20028;-62
2023/04/21 09:02:56;;;;;;;7.13;3.45;;;;;;;;;;5049335;28;20044;-64
2023/04/21 09:05:22;;;;;;;7.55;4.00;;;;;;;;;;5049041;28;20127;-61
2023/04/21 09:07:48;;;;;;;9.77;3.90;;;;;;;;;;5051092;28;20107;-68
2023/04/21 09:10:13;;;;;;;7.50;3.70;;;;;;;;;;5031897;28;20351;-62
2023/04/21 09:12:41;;;;;;;6.40;3.57;;;;;;;;;;5053955;28;20081;-68
2023/04/21 09:15:08;;;;;;;8.38;3.80;;;;;;;;;;5039216;28;20276;-65
2023/04/21 09:17:35;;;;;;;5.88;3.60;;;;;;;;;;5066096;28;20759;-68
2023/04/21 09:20:19;;;;;;;5.95;3.00;;;;;;;;;;5052418;28;20124;-63
2023/04/21 09:22:44;;;;;;;3.78;3.10;;;;;;;;;;5052349;28;20120;-63
2023/04/21 09:25:10;;;;;;;3.83;3.05;;;;;;;;;;5031761;28;20204;-66
2023/04/21 09:27:35;;;;;;;7.93;3.13;;;;;;;;;;5028546;28;20067;-69
2023/04/21 09:30:05;;;;;;;11.50;3.58;;;;;;;;;;5056591;28;20651;-63
2023/04/21 09:32:34;;;;;;;8.35;3.63;;;;;;;;;;5045501;28;20044;-63
2023/04/21 09:35:00;;;;;;;11.82;3.90;;;;;;;;;;5045954;28;20545;-69
2023/04/21 09:37:25;;;;;;;8.07;3.37;;;;;;;;;;5061558;28;20085;-78
2023/04/21 09:39:50;;;;;;;4.43;3.23;;;;;;;;;;5051887;28;21154;-73
2023/04/21 09:42:16;;;;;;;6.47;3.33;;;;;;;;;;5054007;28;20049;-71
2023/04/21 09:44:41;;;;;;;6.85;3.70;;;;;;;;;;5054945;28;20511;-64
2023/04/21 09:47:08;;;;;;;6.20;3.53;;;;;;;;;;5038757;28;20037;-65
2023/04/21 09:49:34;;;;;;;7.18;3.63;;;;;;;;;;5039487;28;20119;-69
2023/04/21 09:52:00;;;;;;;7.13;3.58;;;;;;;;;;5049051;28;20075;-68
2023/04/21 09:54:29;;;;;;;8.07;3.45;;;;;;;;;;5048659;28;20439;-68
2023/04/21 09:56:55;;;;;;;6.28;4.10;;;;;;;;;;5043044;28;20037;-70
2023/04/21 09:59:23;;;;;;;4.38;3.35;;;;;;;;;;5043239;28;20106;-63
2023/04/21 10:01:49;;;;;;;8.55;3.95;;;;;;;;;;5045995;28;20498;-68
2023/04/21 10:04:14;;;;;;;5.20;3.53;;;;;;;;;;5052312;28;20139;-74
2023/04/21 10:06:39;;;;;;;6.05;3.17;;;;;;;;;;5027890;28;20029;-72
2023/04/21 10:09:05;;;;;;;5.13;3.20;;;;;;;;;;5043925;28;20040;-71
2023/04/21 10:11:31;;;;;;;5.20;3.30;;;;;;;;;;5047417;28;20033;-74
2023/04/21 10:13:57;;;;;;;5.43;3.13;;;;;;;;;;5043881;28;20056;-66
2023/04/21 10:16:22;;;;;;;5.30;3.08;;;;;;;;;;5045551;28;20041;-73
2023/04/21 10:18:47;;;;;;;5.50;3.28;;;;;;;;;;5048737;28;20978;-67
2023/04/21 10:21:20;;;;;;;5.15;3.05;;;;;;;;;;5049385;28;20185;-69
2023/04/21 10:23:52;;;;;;;4.35;3.30;;;;;;;;;;5051181;28;20048;-69
2023/04/21 10:26:18;;;;;;;5.18;3.08;;;;;;;;;;5055273;28;20032;-72
2023/04/21 10:28:59;;;;;;;4.60;3.42;;;;;;;;;;5060197;28;20052;-75
2023/04/21 10:31:34;;;;;;;5.53;3.75;;;;;;;;;;5013066;28;20091;-67
2023/04/21 10:34:20;;;;;;;6.68;3.88;;;;;;;;;;5050850;28;20520;-70
2023/04/21 10:36:45;;;;;;;5.93;3.38;;;;;;;;;;5035305;28;20056;-68
2023/04/21 10:39:13;;;;;;;5.90;3.73;;;;;;;;;;5064972;28;20071;-67
2023/04/21 10:41:38;;;;;;;7.07;3.42;;;;;;;;;;5051624;28;20292;-70
2023/04/21 10:44:13;;;;;;;7.00;3.63;;;;;;;;;;5057656;28;20059;-63
2023/04/21 10:46:38;;;;;;;6.65;3.30;;;;;;;;;;5037467;28;20283;-70
2023/04/21 10:49:22;;;;;;;5.72;3.40;;;;;;;;;;5047043;28;20234;-73
2023/04/21 10:52:03;;;;;;;5.72;3.40;;;;;;;;;;5047764;28;20124;-68
2023/04/21 10:54:40;;;;;;;5.45;3.53;;;;;;;;;;5028117;28;20045;-71
2023/04/21 10:57:06;;;;;;;5.10;3.47;;;;;;;;;;5062299;28;20025;-64
2023/04/21 10:59:32;;;;;;;6.07;3.40;;;;;;;;;;5037775;28;20072;-67
2023/04/21 11:01:58;;;;;;;5.50;3.55;;;;;;;;;;5050205;28;20061;-72
2023/04/21 11:04:23;;;;;;;5.27;3.70;;;;;;;;;;5049005;28;20099;-68
2023/04/21 11:07:08;;;;;;;4.95;3.53;;;;;;;;;;5029298;28;20819;-67
2023/04/21 11:09:34;;;;;;;5.80;3.47;;;;;;;;;;5024929;28;20041;-70
2023/04/21 11:12:01;;;;;;;5.65;3.30;;;;;;;;;;5028149;28;20030;-70
2023/04/21 11:14:26;;;;;;;5.78;2.97;;;;;;;;;;5029961;28;20045;-64
2023/04/21 11:16:51;;;;;;;6.30;3.63;;;;;;;;;;5043653;28;20080;-67
2023/04/21 11:19:17;;;;;;;5.53;3.20;;;;;;;;;;5036492;28;20030;-68
2023/04/21 11:21:42;;;;;;;5.22;3.30;;;;;;;;;;5042852;28;20307;-70
2023/04/21 11:24:07;;;;;;;6.60;3.47;;;;;;;;;;5046899;28;20197;-68
2023/04/21 11:26:33;;;;;;;5.30;3.37;;;;;;;;;;5049663;28;20279;-68
2023/04/21 11:28:59;;;;;;;4.78;3.00;;;;;;;;;;5028487;28;20300;-70
2023/04/21 11:31:27;;;;;;;5.78;3.13;;;;;;;;;;5031367;28;20045;-61
2023/04/21 11:33:54;;;;;;;5.10;3.28;;;;;;;;;;5034750;28;20155;-65
2023/04/21 11:36:20;;;;;;;4.53;2.92;;;;;;;;;;5046767;28;20032;-73
2023/04/21 11:38:45;;;;;;;5.38;3.08;;;;;;;;;;5034745;28;20095;-71
2023/04/21 11:41:10;;;;;;;4.30;3.13;;;;;;;;;;5039852;28;20135;-64
2023/04/21 11:43:36;;;;;;;5.45;3.33;;;;;;;;;;5029175;28;20204;-65
2023/04/21 11:46:20;;;;;;;6.68;3.10;;;;;;;;;;5026560;28;20045;-63
2023/04/21 11:48:45;;;;;;;5.85;3.03;;;;;;;;;;5011409;28;20045;-67
2023/04/21 11:51:17;;;;;;;5.25;3.25;;;;;;;;;;5023530;28;20120;-65
2023/04/21 11:53:42;;;;;;;12.82;3.22;;;;;;;;;;5049080;28;20037;-67
2023/04/21 11:56:09;;;;;;;4.70;3.20;;;;;;;;;;5036399;28;20043;-67
2023/04/21 11:58:34;;;;;;;5.60;3.50;;;;;;;;;;5037085;28;20049;-64
2023/04/21 12:01:06;;;;;;;6.90;3.27;;;;;;;;;;5044256;28;20033;-64
2023/04/21 12:03:31;;;;;;;4.05;2.90;;;;;;;;;;5030955;28;20059;-67
2023/04/21 12:05:57;;;;;;;7.33;3.20;;;;;;;;;;5048875;28;20045;-64
2023/04/21 12:08:22;;;;;;;4.82;3.20;;;;;;;;;;5043561;28;20279;-67
2023/04/21 12:10:47;;;;;;;4.25;2.70;;;;;;;;;;5058310;28;20106;-64
2023/04/21 12:13:12;;;;;;;5.07;2.87;;;;;;;;;;5038022;28;20049;-62
2023/04/21 12:15:38;;;;;;;6.53;2.90;;;;;;;;;;5027699;28;20333;-70
2023/04/21 12:18:03;;;;;;;3.93;2.80;;;;;;;;;;5038217;28;20056;-65
2023/04/21 12:20:28;;;;;;;4.57;2.53;;;;;;;;;;5035707;28;20025;-62
2023/04/21 12:22:55;;;;;;;5.40;2.72;;;;;;;;;;5049224;28;20767;-67
2023/04/21 12:25:20;;;;;;;4.30;2.80;;;;;;;;;;5046811;28;20316;-65
2023/04/21 12:27:48;;;;;;;5.57;2.70;;;;;;;;;;5046551;28;20140;-64
2023/04/21 12:30:14;;;;;;;5.95;2.70;;;;;;;;;;5047794;28;20287;-63
2023/04/21 12:32:39;;;;;;;4.75;2.80;;;;;;;;;;5029782;28;20037;-68
2023/04/21 12:35:04;;;;;;;4.20;2.70;;;;;;;;;;5032955;28;20041;-63
2023/04/21 12:37:30;;;;;;;4.32;2.60;;;;;;;;;;5047615;28;20303;-69
2023/04/21 12:39:56;;;;;;;3.93;2.60;;;;;;;;;;5050301;28;20098;-68
2023/04/21 12:42:21;;;;;;;4.82;2.28;;;;;;;;;;5058060;28;20029;-63
2023/04/21 12:44:46;;;;;;;4.10;2.80;;;;;;;;;;5040665;28;20400;-65
2023/04/21 12:47:12;;;;;;;3.73;2.70;;;;;;;;;;5054135;28;20486;-67
2023/04/21 12:49:37;;;;;;;3.47;2.47;;;;;;;;;;5032304;28;20341;-67
2023/04/21 12:52:04;;;;;;;4.80;2.90;;;;;;;;;;5066878;28;20032;-66
2023/04/21 12:54:30;;;;;;;3.90;2.63;;;;;;;;;;5057854;28;20138;-67
2023/04/21 12:56:56;;;;;;;3.73;2.50;;;;;;;;;;5053636;28;20415;-67
2023/04/21 12:59:22;;;;;;;3.60;2.65;;;;;;;;;;5056865;28;20298;-67
2023/04/21 13:01:47;;;;;;;5.43;2.70;;;;;;;;;;5039079;28;20060;-66
2023/04/21 13:04:12;;;;;;;5.90;2.70;;;;;;;;;;5046963;28;20052;-68
2023/04/21 13:06:37;;;;;;;4.37;2.80;;;;;;;;;;5059184;28;20766;-64
2023/04/21 13:09:03;;;;;;;3.80;2.65;;;;;;;;;;5050006;28;20064;-66
2023/04/21 13:11:28;;;;;;;3.25;2.78;;;;;;;;;;5048875;28;20036;-66
2023/04/21 13:13:53;;;;;;;4.25;2.80;;;;;;;;;;5060161;28;20489;-65
2023/04/21 13:16:19;;;;;;;4.00;2.80;;;;;;;;;;5047287;28;20033;-67
2023/04/21 13:18:44;;;;;;;4.95;3.10;;;;;;;;;;5059442;28;20272;-62
2023/04/21 13:21:09;;;;;;;3.67;2.67;;;;;;;;;;5029134;28;20210;-66
2023/04/21 13:23:36;;;;;;;4.63;2.65;;;;;;;;;;5046827;28;20052;-65
2023/04/21 13:26:01;;;;;;;4.40;2.55;;;;;;;;;;5053048;28;20017;-65
2023/04/21 13:28:26;;;;;;;4.03;2.60;;;;;;;;;;5058812;28;20493;-64
2023/04/21 13:30:52;;;;;;;4.95;2.70;;;;;;;;;;5049362;28;20401;-65
2023/04/21 13:33:17;;;;;;;3.42;2.67;;;;;;;;;;5047197;28;20126;-67
2023/04/21 13:35:42;;;;;;;4.80;2.80;;;;;;;;;;5060732;28;20032;-67
2023/04/21 13:38:07;;;;;;;3.40;2.70;;;;;;;;;;5057790;28;20090;-65
2023/04/21 13:40:33;;;;;;;4.63;2.47;;;;;;;;;;5065815;28;20004;-67
2023/04/21 13:42:58;;;;;;;3.73;2.63;;;;;;;;;;5047464;28;20313;-69
2023/04/21 13:45:24;;;;;;;3.25;2.60;;;;;;;;;;5051271;28;20033;-64
2023/04/21 13:47:50;;;;;;;3.30;2.60;;;;;;;;;;5056218;28;20024;-65
2023/04/21 13:50:15;;;;;;;4.88;2.25;;;;;;;;;;5051390;28;20020;-64
2023/04/21 13:52:41;;;;;;;3.78;2.72;;;;;;;;;;5060013;28;20481;-64
2023/04/21 13:55:06;;;;;;;3.77;2.53;;;;;;;;;;5051917;28;20135;-65
2023/04/21 13:57:31;;;;;;;2.88;2.33;;;;;;;;;;5064228;28;20255;-65
2023/04/21 13:59:57;;;;;;;3.27;2.60;;;;;;;;;;5032052;28;21151;-62
2023/04/21 14:02:24;;;;;;;3.45;2.58;;;;;;;;;;5046506;28;20510;-68
2023/04/21 14:04:49;;;;;;;4.05;2.72;;;;;;;;;;5012700;28;20025;-64
2023/04/21 14:07:16;;;;;;;4.38;2.40;;;;;;;;;;5062697;28;20044;-62
2023/04/21 14:09:42;;;;;;;3.97;2.60;;;;;;;;;;5053117;28;20111;-63
2023/04/21 14:12:07;;;;;;;2.90;2.55;;;;;;;;;;5068545;28;20055;-67
2023/04/21 14:14:32;;;;;;;4.10;2.97;;;;;;;;;;5052602;28;20047;-63
2023/04/21 14:16:58;;;;;;;3.77;2.70;;;;;;;;;;5058102;28;20289;-66
2023/04/21 14:19:23;;;;;;;4.47;2.73;;;;;;;;;;5031082;28;20277;-65
2023/04/21 14:21:48;;;;;;;3.63;2.80;;;;;;;;;;5056267;28;20295;-68
2023/04/21 14:24:13;;;;;;;3.97;2.50;;;;;;;;;;5058393;28;20280;-62
2023/04/21 14:26:39;;;;;;;8.57;3.30;;;;;;;;;;5037979;28;20629;-65
2023/04/21 14:29:04;;;;;;;5.47;2.87;;;;;;;;;;5062931;28;20277;-68
2023/04/21 14:31:29;;;;;;;15.60;4.13;;;;;;;;;;5048210;28;20012;-69
2023/04/21 14:33:55;;;;;;;9.55;3.53;;;;;;;;;;5039886;28;20043;-69
2023/04/21 14:36:20;;;;;;;5.43;3.33;;;;;;;;;;5032266;28;20658;-71